Time;durP1;ratioP1;P1;durP2;ratioP2;P2;SDS_P1;SDS_P2;PMS_P1;PMS_P2;Temp;Humidity;BMP_temperature;BMP_pressure;BME280_temperature;BME280_humidity;BME280_pressure;Samples;Min_cycle;Max_cycle;Signal;HPM_P1;HPM_P2
2022/10/13 00:00:04;;;;;;;13.05;5.10;;;;;;;6.68;52.52;101884.47;5026425;28;20425;-66
2022/10/13 00:02:37;;;;;;;15.90;5.28;;;;;;;6.79;52.28;101882.66;5023165;28;20409;-66
2022/10/13 00:05:03;;;;;;;8.45;4.53;;;;;;;6.93;52.18;101882.53;5011967;28;20028;-65
2022/10/13 00:07:28;;;;;;;9.38;5.00;;;;;;;7.04;51.99;101887.63;5023547;28;20753;-66
2022/10/13 00:09:54;;;;;;;9.63;5.00;;;;;;;7.14;52.11;101885.84;5027619;28;20143;-65
2022/10/13 00:12:19;;;;;;;12.07;6.03;;;;;;;7.17;51.71;101884.03;5016727;28;20111;-65
2022/10/13 00:14:45;;;;;;;10.23;5.03;;;;;;;7.24;51.66;101883.09;5030705;28;20033;-65
2022/10/13 00:17:10;;;;;;;11.00;5.85;;;;;;;7.31;51.30;101877.00;5026602;28;20525;-64
2022/10/13 00:19:35;;;;;;;12.52;5.45;;;;;;;7.28;51.79;101871.78;5027062;28;20409;-64
2022/10/13 00:22:01;;;;;;;18.25;6.93;;;;;;;7.32;51.68;101877.84;5027196;28;20452;-69
2022/10/13 00:24:26;;;;;;;20.20;7.30;;;;;;;7.31;51.59;101877.00;5032491;28;20440;-69
2022/10/13 00:26:52;;;;;;;15.70;6.55;;;;;;;7.41;51.63;101866.47;5027492;28;20371;-64
2022/10/13 00:29:17;;;;;;;11.38;5.30;;;;;;;7.57;51.59;101875.84;5026939;28;20671;-65
2022/10/13 00:31:43;;;;;;;10.57;4.10;;;;;;;7.56;50.90;101874.16;5026749;28;20397;-64
2022/10/13 00:34:10;;;;;;;12.27;5.80;;;;;;;7.52;51.37;101869.81;5031311;28;20029;-70
2022/10/13 00:36:35;;;;;;;13.73;6.45;;;;;;;7.41;51.17;101877.75;5028685;28;20078;-70
2022/10/13 00:39:01;;;;;;;10.20;5.60;;;;;;;7.42;51.58;101873.38;5013854;28;20041;-70
2022/10/13 00:41:26;;;;;;;10.68;4.97;;;;;;;7.43;51.56;101873.38;5033516;28;20068;-71
2022/10/13 00:44:25;;;;;;;10.23;5.22;;;;;;;7.42;51.76;101878.59;5026817;28;20583;-70
2022/10/13 00:46:51;;;;;;;12.77;5.88;;;;;;;7.64;51.26;101871.44;5032682;28;20044;-70
2022/10/13 00:49:16;;;;;;;10.23;4.78;;;;;;;7.70;51.17;101869.63;5033302;28;20037;-70
2022/10/13 00:51:48;;;;;;;9.77;5.50;;;;;;;7.75;51.09;101864.38;5032971;28;20156;-65
2022/10/13 00:54:19;;;;;;;8.52;5.28;;;;;;;7.77;51.07;101874.78;5029924;28;20035;-64
2022/10/13 00:56:47;;;;;;;11.68;4.82;;;;;;;7.79;51.38;101858.25;5029144;28;20037;-64
2022/10/13 00:59:22;;;;;;;19.23;6.15;;;;;;;7.76;51.20;101862.63;5027774;28;20040;-62
2022/10/13 01:01:53;;;;;;;13.00;5.82;;;;;;;7.73;51.66;101854.00;5044139;28;20033;-62
2022/10/13 01:04:24;;;;;;;14.60;6.45;;;;;;;7.67;51.21;101848.00;5027785;28;20029;-63
2022/10/13 01:06:52;;;;;;;11.63;5.73;;;;;;;7.62;51.19;101853.25;5028105;28;20534;-63
2022/10/13 01:09:18;;;;;;;12.27;5.22;;;;;;;7.71;51.42;101850.56;5028350;28;20413;-62
2022/10/13 01:12:17;;;;;;;11.13;5.88;;;;;;;7.68;51.35;101847.97;5027213;28;20072;-63
2022/10/13 01:15:21;;;;;;;12.65;6.15;;;;;;;7.69;51.61;101839.31;5030793;28;20489;-69
2022/10/13 01:17:58;;;;;;;12.75;6.25;;;;;;;7.64;51.36;101830.66;5028486;28;20381;-66
2022/10/13 01:20:39;;;;;;;14.05;5.90;;;;;;;7.70;51.48;101834.94;5020270;28;20040;-67
2022/10/13 01:23:42;;;;;;;9.20;4.80;;;;;;;7.74;51.36;101829.69;5031050;28;20041;-66
2022/10/13 01:26:47;;;;;;;15.02;5.82;;;;;;;7.65;51.29;101829.81;5047921;28;20032;-66
2022/10/13 01:29:43;;;;;;;11.65;5.03;;;;;;;7.58;51.86;101825.56;5026668;28;20045;-68
2022/10/13 01:32:14;;;;;;;17.90;6.50;;;;;;;7.60;51.78;101825.53;5031635;28;20288;-65
2022/10/13 01:34:58;;;;;;;18.58;7.03;;;;;;;7.59;51.57;101823.81;5031036;28;20029;-64
2022/10/13 01:37:58;;;;;;;13.20;5.57;;;;;;;7.61;51.57;101814.25;5029259;28;20104;-65
2022/10/13 01:40:32;;;;;;;10.65;5.28;;;;;;;7.62;51.52;101814.22;5028529;28;20122;-67
2022/10/13 01:43:07;;;;;;;15.23;6.03;;;;;;;7.71;51.20;101808.03;5030014;28;20044;-67
2022/10/13 01:45:55;;;;;;;11.75;5.38;;;;;;;7.72;50.78;101804.56;5031901;28;20151;-67
2022/10/13 01:48:23;;;;;;;9.35;5.22;;;;;;;7.77;50.85;101804.50;5037655;28;20153;-67
2022/10/13 01:50:52;;;;;;;7.85;5.00;;;;;;;7.81;51.38;101800.97;5037133;28;20029;-65
2022/10/13 01:53:19;;;;;;;12.70;5.30;;;;;;;7.90;50.96;101804.31;5029386;28;20107;-67
2022/10/13 01:55:53;;;;;;;8.60;5.60;;;;;;;7.95;50.81;101801.63;5030434;28;20053;-65
2022/10/13 01:58:19;;;;;;;12.82;4.75;;;;;;;8.02;50.35;101798.06;5029356;28;20136;-65
2022/10/13 02:01:02;;;;;;;9.27;4.57;;;;;;;8.03;50.73;101799.78;5027564;28;20033;-66
2022/10/13 02:03:55;;;;;;;7.00;4.28;;;;;;;8.08;50.42;101787.56;5036780;28;20033;-65
2022/10/13 02:06:35;;;;;;;7.93;4.45;;;;;;;8.08;50.48;101797.97;5011940;28;20033;-65
2022/10/13 02:09:11;;;;;;;16.08;5.47;;;;;;;8.09;50.33;101791.91;5025225;28;20033;-66
2022/10/13 02:11:45;;;;;;;9.13;4.78;;;;;;;8.17;50.19;101790.91;5029629;28;20040;-67
2022/10/13 02:14:17;;;;;;;13.50;5.95;;;;;;;8.18;50.05;101788.28;5031670;28;20506;-66
2022/10/13 02:16:45;;;;;;;13.02;5.13;;;;;;;8.22;50.03;101789.09;5031261;28;20488;-67
2022/10/13 02:19:14;;;;;;;12.70;5.00;;;;;;;8.21;49.97;101787.38;5029660;28;20393;-67
2022/10/13 02:21:40;;;;;;;10.55;5.95;;;;;;;8.25;50.10;101778.63;5043743;28;20033;-67
2022/10/13 02:24:07;;;;;;;20.33;6.40;;;;;;;8.25;50.17;101776.00;5046188;28;20288;-66
2022/10/13 02:26:33;;;;;;;11.27;5.30;;;;;;;8.22;50.16;101776.06;5038153;28;20048;-66
2022/10/13 02:29:10;;;;;;;12.40;6.20;;;;;;;8.02;50.19;101772.03;5032596;28;20314;-68
2022/10/13 02:31:35;;;;;;;14.20;6.15;;;;;;;8.09;50.40;101768.47;5032029;28;20067;-66
2022/10/13 02:34:01;;;;;;;12.38;5.75;;;;;;;8.03;50.27;101757.28;5029522;28;20073;-66
2022/10/13 02:36:26;;;;;;;12.40;5.38;;;;;;;8.04;50.35;101759.84;5034315;28;20151;-67
2022/10/13 02:38:54;;;;;;;13.35;5.75;;;;;;;7.98;50.26;101765.16;5029647;28;20091;-68
2022/10/13 02:41:19;;;;;;;12.35;6.07;;;;;;;7.97;50.79;101750.41;5031021;28;20033;-67
2022/10/13 02:43:45;;;;;;;8.70;4.53;;;;;;;8.00;51.03;101747.75;5031329;28;20073;-68
2022/10/13 02:46:11;;;;;;;13.20;5.75;;;;;;;8.01;50.94;101744.28;5033406;28;20048;-66
2022/10/13 02:48:37;;;;;;;9.20;5.05;;;;;;;7.99;50.92;101751.25;5025229;28;20395;-67
2022/10/13 02:51:03;;;;;;;15.70;5.88;;;;;;;8.03;50.73;101747.72;5037580;28;20507;-67
2022/10/13 02:53:28;;;;;;;11.43;5.40;;;;;;;8.02;50.68;101755.56;5044376;28;20099;-67
2022/10/13 02:55:54;;;;;;;10.95;5.03;;;;;;;7.95;51.01;101755.63;5029928;28;20029;-67
2022/10/13 02:58:19;;;;;;;13.45;5.78;;;;;;;8.03;50.89;101763.34;5028909;28;20112;-67
2022/10/13 03:00:45;;;;;;;21.10;7.35;;;;;;;8.01;50.75;101746.88;5028490;28;20304;-66
2022/10/13 03:03:10;;;;;;;12.95;5.57;;;;;;;8.01;50.85;101748.63;5032566;28;20068;-67
2022/10/13 03:05:36;;;;;;;8.30;5.57;;;;;;;8.01;50.88;101749.50;5028509;28;20573;-67
2022/10/13 03:08:01;;;;;;;8.40;4.38;;;;;;;7.98;50.56;101744.34;5027273;28;20077;-75
2022/10/13 03:10:28;;;;;;;14.88;5.97;;;;;;;7.97;51.04;101747.81;5023014;28;20211;-75
2022/10/13 03:12:55;;;;;;;13.73;5.45;;;;;;;7.97;50.78;101741.75;5028380;28;20041;-76
2022/10/13 03:15:21;;;;;;;24.13;5.75;;;;;;;8.01;50.76;101744.28;5023827;28;20029;-75
2022/10/13 03:17:48;;;;;;;9.88;5.40;;;;;;;7.98;50.84;101746.94;5034249;28;20322;-75
2022/10/13 03:20:14;;;;;;;16.05;5.90;;;;;;;7.92;50.71;101740.06;5040643;28;20060;-75
2022/10/13 03:22:39;;;;;;;15.10;5.22;;;;;;;7.95;51.15;101734.81;5034697;28;20044;-75
2022/10/13 03:25:05;;;;;;;18.40;5.57;;;;;;;7.91;51.06;101738.38;5038631;28;20529;-75
2022/10/13 03:27:31;;;;;;;12.63;5.25;;;;;;;7.94;50.91;101735.72;5032300;28;20176;-76
2022/10/13 03:29:56;;;;;;;10.73;5.63;;;;;;;7.85;51.06;101730.66;5034955;28;20136;-76
2022/10/13 03:32:22;;;;;;;16.50;6.50;;;;;;;7.78;51.27;101731.63;5038807;28;20541;-76
2022/10/13 03:34:49;;;;;;;11.02;5.50;;;;;;;7.80;51.45;101728.97;5034892;28;20033;-76
2022/10/13 03:37:14;;;;;;;13.23;5.50;;;;;;;7.82;51.10;101722.00;5032708;28;20055;-76
2022/10/13 03:39:40;;;;;;;14.80;6.57;;;;;;;7.77;51.53;101716.03;5028290;28;20038;-67
2022/10/13 03:42:07;;;;;;;13.68;6.22;;;;;;;7.84;51.10;101715.03;5026821;28;20045;-67
2022/10/13 03:44:33;;;;;;;13.98;6.25;;;;;;;7.69;51.83;101718.72;5013761;28;20107;-66
2022/10/13 03:47:00;;;;;;;12.40;6.40;;;;;;;7.82;51.58;101707.25;5025554;28;20121;-66
2022/10/13 03:49:26;;;;;;;13.48;7.97;;;;;;;7.74;51.85;101709.97;5030980;28;20044;-66
2022/10/13 03:51:51;;;;;;;12.52;6.70;;;;;;;7.69;51.70;101708.31;5030128;28;20127;-66
2022/10/13 03:54:17;;;;;;;9.43;6.13;;;;;;;7.69;51.77;101709.19;5030621;28;20029;-65
2022/10/13 03:56:45;;;;;;;16.70;7.22;;;;;;;7.69;52.02;101714.41;5036706;28;20082;-67
2022/10/13 03:59:12;;;;;;;11.18;6.05;;;;;;;7.82;52.22;101714.19;5028512;28;20127;-67
2022/10/13 04:01:38;;;;;;;14.70;5.80;;;;;;;7.82;51.77;101715.06;5035941;28;20041;-67
2022/10/13 04:04:06;;;;;;;17.55;6.38;;;;;;;7.78;51.90;101721.22;5028834;28;20037;-67
2022/10/13 04:06:32;;;;;;;18.92;7.00;;;;;;;7.91;52.17;101722.75;5036202;28;20064;-66
2022/10/13 04:08:57;;;;;;;11.02;6.25;;;;;;;8.03;51.68;101721.69;5026420;28;20096;-68
2022/10/13 04:11:23;;;;;;;17.77;7.50;;;;;;;7.93;51.65;101720.09;5038588;28;20052;-68
2022/10/13 04:13:55;;;;;;;14.50;6.93;;;;;;;7.89;51.67;101714.09;5027965;28;20033;-66
2022/10/13 04:16:23;;;;;;;17.30;6.10;;;;;;;7.91;52.11;101716.66;5031168;28;20479;-66
2022/10/13 04:19:03;;;;;;;12.77;6.20;;;;;;;7.93;52.00;101720.09;5027291;28;20060;-69
2022/10/13 04:21:32;;;;;;;14.30;5.82;;;;;;;7.94;52.20;101719.22;5036721;28;20033;-69
2022/10/13 04:23:58;;;;;;;15.55;7.03;;;;;;;7.98;51.91;101722.63;5030349;28;20252;-68
2022/10/13 04:26:26;;;;;;;14.18;6.57;;;;;;;7.96;52.06;101714.88;5037508;28;20044;-69
2022/10/13 04:28:53;;;;;;;14.55;6.55;;;;;;;7.96;51.96;101720.06;5034246;28;20033;-69
2022/10/13 04:31:20;;;;;;;15.50;6.47;;;;;;;8.00;51.93;101715.66;5033025;28;20029;-69
2022/10/13 04:33:47;;;;;;;11.05;6.38;;;;;;;7.94;52.00;101704.47;5036432;28;20132;-69
2022/10/13 04:36:13;;;;;;;13.50;6.28;;;;;;;7.99;52.22;101711.34;5033920;28;20288;-65
2022/10/13 04:38:40;;;;;;;15.77;7.35;;;;;;;7.99;52.05;101720.00;5032452;28;20048;-66
2022/10/13 04:41:07;;;;;;;16.15;7.68;;;;;;;8.01;51.82;101712.19;5033108;28;20048;-68
2022/10/13 04:43:33;;;;;;;10.23;5.82;;;;;;;7.99;52.05;101704.41;5033059;28;20041;-70
2022/10/13 04:46:06;;;;;;;14.73;6.10;;;;;;;8.01;51.66;101700.03;5034116;28;20079;-70
2022/10/13 04:48:32;;;;;;;15.13;6.35;;;;;;;8.00;51.93;101700.03;5039553;28;20613;-70
2022/10/13 04:50:59;;;;;;;10.88;6.85;;;;;;;8.02;51.84;101703.47;5038793;28;20104;-72
2022/10/13 04:53:28;;;;;;;12.80;6.22;;;;;;;7.97;51.57;101710.50;5033053;28;20128;-71
2022/10/13 04:55:55;;;;;;;14.80;7.18;;;;;;;7.95;51.99;101708.78;5032185;28;20040;-71
2022/10/13 04:58:20;;;;;;;13.70;6.90;;;;;;;7.98;51.61;101702.69;5041358;28;20539;-71
2022/10/13 05:00:46;;;;;;;14.70;6.65;;;;;;;7.81;52.22;101705.53;5033159;28;20726;-69
2022/10/13 05:03:12;;;;;;;10.30;6.70;;;;;;;7.88;52.19;101701.09;5032998;28;20064;-70
2022/10/13 05:05:38;;;;;;;11.43;6.13;;;;;;;7.98;51.77;101697.47;5035780;28;20063;-70
2022/10/13 05:08:04;;;;;;;14.85;6.70;;;;;;;7.93;51.76;101694.91;5033847;28;20071;-69
2022/10/13 05:10:30;;;;;;;16.13;6.07;;;;;;;8.03;52.09;101685.25;5035799;28;20033;-69
2022/10/13 05:12:55;;;;;;;12.48;6.68;;;;;;;7.96;51.64;101691.44;5029876;28;20045;-69
2022/10/13 05:15:21;;;;;;;14.95;6.78;;;;;;;7.88;52.05;101688.94;5030600;28;20079;-64
2022/10/13 05:17:46;;;;;;;16.10;6.18;;;;;;;7.91;51.81;101681.09;5028247;28;20041;-65
2022/10/13 05:20:11;;;;;;;14.95;7.43;;;;;;;7.92;51.95;101671.53;5032614;28;20041;-71
2022/10/13 05:22:37;;;;;;;10.63;6.55;;;;;;;7.87;51.76;101671.63;5040476;28;20539;-71
2022/10/13 05:25:03;;;;;;;14.55;7.57;;;;;;;7.84;52.09;101673.41;5032635;28;20038;-66
2022/10/13 05:27:28;;;;;;;15.95;7.82;;;;;;;7.87;52.10;101662.94;5027939;28;20480;-67
2022/10/13 05:29:54;;;;;;;14.75;7.32;;;;;;;7.80;51.88;101663.91;5034791;28;20544;-67
2022/10/13 05:32:20;;;;;;;16.77;6.80;;;;;;;7.80;52.06;101667.41;5034589;28;20034;-69
2022/10/13 05:34:47;;;;;;;12.18;6.80;;;;;;;7.85;52.16;101662.97;5029295;28;20523;-66
2022/10/13 05:37:15;;;;;;;13.75;7.68;;;;;;;7.71;52.17;101671.00;5037696;28;20045;-65
2022/10/13 05:39:41;;;;;;;20.35;9.23;;;;;;;7.85;52.10;101664.72;5028436;28;20056;-65
2022/10/13 05:42:07;;;;;;;17.73;9.27;;;;;;;7.82;51.97;101664.75;5030079;28;20638;-68
2022/10/13 05:44:35;;;;;;;23.77;7.38;;;;;;;7.86;52.08;101666.44;5030925;28;20033;-76
2022/10/13 05:47:01;;;;;;;20.45;9.05;;;;;;;7.82;52.05;101663.00;5033921;28;20564;-71
2022/10/13 05:49:29;;;;;;;25.60;11.18;;;;;;;7.83;52.31;101661.28;5047409;28;20112;-72
2022/10/13 05:51:58;;;;;;;19.40;8.50;;;;;;;7.81;52.28;101661.28;5035810;28;20024;-72
2022/10/13 05:54:34;;;;;;;23.70;9.32;;;;;;;7.80;52.34;101666.50;5041290;28;20617;-74
2022/10/13 05:57:13;;;;;;;21.58;8.90;;;;;;;7.76;52.26;101654.44;5032593;28;20033;-73
2022/10/13 05:59:42;;;;;;;13.32;8.23;;;;;;;7.72;52.49;101656.25;5031523;28;20177;-71
2022/10/13 06:02:13;;;;;;;27.85;8.23;;;;;;;7.70;52.34;101650.19;5032141;28;20041;-72
2022/10/13 06:04:43;;;;;;;22.95;7.97;;;;;;;7.63;52.84;101656.38;5030442;28;20037;-72
2022/10/13 06:07:10;;;;;;;18.25;8.43;;;;;;;7.56;53.32;101639.13;5033130;28;20029;-73
2022/10/13 06:09:37;;;;;;;14.70;7.93;;;;;;;7.49;53.54;101643.56;5032255;28;20497;-73
2022/10/13 06:12:04;;;;;;;23.67;8.25;;;;;;;7.49;53.41;101646.16;5031448;28;20426;-74
2022/10/13 06:14:29;;;;;;;18.40;8.52;;;;;;;7.44;53.78;101642.75;5032304;28;20037;-71
2022/10/13 06:16:55;;;;;;;21.38;9.55;;;;;;;7.45;53.52;101641.88;5034145;28;20044;-69
2022/10/13 06:19:20;;;;;;;22.23;8.77;;;;;;;7.56;53.79;101642.59;5031097;28;20041;-69
2022/10/13 06:21:46;;;;;;;21.33;9.07;;;;;;;7.60;53.61;101649.50;5038792;28;20091;-71
2022/10/13 06:24:12;;;;;;;24.17;10.02;;;;;;;7.58;53.73;101646.06;5033769;28;20127;-70
2022/10/13 06:26:37;;;;;;;37.08;13.88;;;;;;;7.56;54.19;101650.41;5033728;28;20083;-67
2022/10/13 06:29:03;;;;;;;17.63;8.82;;;;;;;7.54;54.11;101649.53;5029997;28;20360;-67
2022/10/13 06:31:31;;;;;;;21.45;8.43;;;;;;;7.63;54.29;101649.44;5032930;28;20030;-68
2022/10/13 06:33:57;;;;;;;20.08;9.57;;;;;;;7.66;54.19;101656.31;5031342;28;20462;-67
2022/10/13 06:36:23;;;;;;;24.27;9.85;;;;;;;7.74;54.35;101655.31;5031841;28;20534;-70
2022/10/13 06:38:49;;;;;;;19.33;7.90;;;;;;;7.84;54.08;101657.78;5030334;28;20045;-70
2022/10/13 06:41:16;;;;;;;21.40;10.07;;;;;;;7.77;54.42;101656.16;5030660;28;20029;-66
2022/10/13 06:43:42;;;;;;;36.70;12.05;;;;;;;7.85;54.44;101649.97;5039561;28;20076;-71
2022/10/13 06:46:11;;;;;;;19.05;9.27;;;;;;;7.65;54.30;101637.25;5037721;28;20061;-69
2022/10/13 06:48:37;;;;;;;27.42;9.88;;;;;;;7.60;54.81;101639.09;5032922;28;20041;-69
2022/10/13 06:51:08;;;;;;;17.23;8.80;;;;;;;7.61;54.96;101640.78;5029860;28;20036;-70
2022/10/13 06:53:34;;;;;;;18.38;8.88;;;;;;;7.56;55.58;101649.53;5032166;28;20059;-69
2022/10/13 06:56:01;;;;;;;22.73;10.23;;;;;;;7.58;55.64;101646.06;5028641;28;20025;-69
2022/10/13 06:58:28;;;;;;;22.05;9.15;;;;;;;7.55;55.96;101646.06;5031863;28;20033;-68
2022/10/13 07:00:53;;;;;;;18.60;9.48;;;;;;;7.69;55.26;101654.56;5029516;28;20454;-69
2022/10/13 07:03:20;;;;;;;25.48;10.60;;;;;;;7.70;55.46;101652.81;5028472;28;20065;-70
2022/10/13 07:05:45;;;;;;;29.13;10.63;;;;;;;7.53;55.78;101643.50;5035279;28;20040;-71
2022/10/13 07:08:11;;;;;;;19.83;9.07;;;;;;;7.61;55.75;101645.13;5031455;28;20040;-71
2022/10/13 07:10:38;;;;;;;18.85;9.02;;;;;;;7.69;55.83;101646.75;5017851;28;20033;-71
2022/10/13 07:13:03;;;;;;;20.20;9.13;;;;;;;7.77;55.67;101658.78;5024527;28;20057;-72
2022/10/13 07:15:29;;;;;;;18.50;9.32;;;;;;;7.83;55.50;101650.88;5033147;28;20104;-71
2022/10/13 07:17:54;;;;;;;22.17;9.90;;;;;;;7.89;55.83;101656.84;5031781;28;20045;-71
2022/10/13 07:20:21;;;;;;;19.48;10.52;;;;;;;7.77;55.97;101654.41;5029480;28;20457;-71
2022/10/13 07:22:47;;;;;;;18.13;9.25;;;;;;;7.76;56.24;101649.22;5015522;28;20057;-71
2022/10/13 07:25:13;;;;;;;22.73;10.43;;;;;;;7.57;56.57;101644.31;5030599;28;20120;-71
2022/10/13 07:27:39;;;;;;;27.15;10.93;;;;;;;7.72;56.37;101643.22;5022492;28;20180;-72
2022/10/13 07:30:07;;;;;;;25.10;9.93;;;;;;;7.77;56.39;101635.34;5027668;28;20570;-71
2022/10/13 07:32:33;;;;;;;18.92;9.60;;;;;;;7.77;56.70;101627.53;5031850;28;20047;-71
2022/10/13 07:35:02;;;;;;;20.15;10.63;;;;;;;7.93;56.59;101634.19;5027456;28;20199;-72
2022/10/13 07:37:28;;;;;;;22.05;10.57;;;;;;;7.96;56.79;101631.56;5028426;28;20098;-71
2022/10/13 07:39:55;;;;;;;22.90;10.55;;;;;;;8.17;56.21;101634.69;5027582;28;20478;-72
2022/10/13 07:42:21;;;;;;;24.45;10.98;;;;;;;8.22;56.14;101625.88;5012849;28;20037;-72
2022/10/13 07:44:46;;;;;;;19.52;11.50;;;;;;;8.21;56.20;101631.13;5030393;28;20043;-72
2022/10/13 07:47:12;;;;;;;23.38;11.50;;;;;;;8.13;56.36;101626.91;5027067;28;20033;-71
2022/10/13 07:49:40;;;;;;;23.38;11.40;;;;;;;8.17;56.27;101619.06;5030691;28;20029;-71
2022/10/13 07:52:06;;;;;;;22.92;11.18;;;;;;;8.17;56.53;101616.44;5026420;28;20075;-71
2022/10/13 07:54:31;;;;;;;23.08;12.15;;;;;;;8.17;56.71;101613.84;5030391;28;20569;-71
2022/10/13 07:56:57;;;;;;;26.10;13.23;;;;;;;8.22;56.65;101612.00;5028349;28;20045;-71
2022/10/13 07:59:22;;;;;;;22.05;12.18;;;;;;;8.29;56.71;101606.69;5029923;28;20068;-70
2022/10/13 08:01:48;;;;;;;36.38;17.50;;;;;;;8.30;56.84;101594.50;5026888;28;20123;-71
2022/10/13 08:04:13;;;;;;;23.92;11.90;;;;;;;8.26;57.06;101595.44;5027921;28;20081;-71
2022/10/13 08:06:39;;;;;;;22.17;12.05;;;;;;;8.27;57.15;101590.22;5032510;28;20040;-70
2022/10/13 08:09:08;;;;;;;22.23;12.23;;;;;;;8.33;57.26;101586.63;5026084;28;20114;-71
2022/10/13 08:11:34;;;;;;;26.15;12.45;;;;;;;8.46;57.38;101588.09;5028915;28;20033;-71
2022/10/13 08:14:00;;;;;;;40.30;18.90;;;;;;;8.66;57.45;101597.28;5030196;28;20621;-71
2022/10/13 08:16:27;;;;;;;26.10;14.02;;;;;;;8.75;57.12;101607.53;5032740;28;20053;-71
2022/10/13 08:18:52;;;;;;;25.52;12.70;;;;;;;8.84;56.91;101609.94;5030009;28;20522;-71
2022/10/13 08:21:21;;;;;;;29.42;16.20;;;;;;;8.68;57.45;101603.31;5013646;28;20108;-72
2022/10/13 08:23:47;;;;;;;26.83;13.27;;;;;;;8.72;57.23;101595.44;5028094;28;20040;-71
2022/10/13 08:26:23;;;;;;;24.20;13.48;;;;;;;8.75;56.87;101597.97;5030922;28;20040;-71
2022/10/13 08:28:49;;;;;;;26.38;13.68;;;;;;;8.87;56.94;101595.97;5025828;28;20041;-70
2022/10/13 08:31:14;;;;;;;28.55;13.57;;;;;;;9.35;56.72;101599.25;5019293;28;20208;-71
2022/10/13 08:33:40;;;;;;;30.40;13.40;;;;;;;9.63;56.00;101598.59;5010964;28;20049;-71
2022/10/13 08:36:11;;;;;;;29.02;13.80;;;;;;;9.95;55.45;101599.59;5033996;28;20036;-71
2022/10/13 08:38:37;;;;;;;24.73;13.05;;;;;;;10.28;54.34;101597.84;5027505;28;20084;-71
2022/10/13 08:41:15;;;;;;;22.40;13.35;;;;;;;10.61;53.59;101600.38;5025806;28;20125;-71
2022/10/13 08:43:48;;;;;;;21.73;11.63;;;;;;;10.90;53.75;101594.34;5025702;28;20041;-71
2022/10/13 08:46:20;;;;;;;28.10;12.43;;;;;;;10.93;53.27;101591.66;5030970;28;20052;-71
2022/10/13 08:48:46;;;;;;;22.60;11.43;;;;;;;10.92;52.31;101592.53;5029682;28;20045;-71
2022/10/13 08:51:15;;;;;;;30.73;13.23;;;;;;;11.37;53.78;101596.38;5025226;28;20029;-71
2022/10/13 08:53:44;;;;;;;23.70;13.25;;;;;;;12.02;51.31;101585.53;5032008;28;20076;-70
2022/10/13 08:56:20;;;;;;;18.52;11.00;;;;;;;12.19;49.77;101592.78;5025955;28;20052;-71
2022/10/13 08:58:49;;;;;;;25.38;13.00;;;;;;;11.87;50.28;101596.53;5027678;28;20368;-71
2022/10/13 09:01:23;;;;;;;20.15;11.02;;;;;;;11.42;50.64;101584.88;5028365;28;20393;-72
2022/10/13 09:03:54;;;;;;;21.23;11.10;;;;;;;11.40;51.14;101604.16;5027620;28;20049;-71
2022/10/13 09:06:27;;;;;;;19.98;11.38;;;;;;;11.63;50.77;101599.03;5027726;28;20029;-71
2022/10/13 09:08:59;;;;;;;19.10;11.27;;;;;;;11.60;51.69;101608.75;5029576;28;20633;-72
2022/10/13 09:11:32;;;;;;;21.23;10.68;;;;;;;11.65;51.73;101597.22;5045959;28;20062;-71
2022/10/13 09:14:02;;;;;;;24.23;10.30;;;;;;;10.84;52.41;101600.63;5037528;28;20045;-70
2022/10/13 09:16:36;;;;;;;20.42;10.45;;;;;;;11.38;51.56;101592.88;5037396;28;20041;-71
2022/10/13 09:19:39;;;;;;;23.45;11.65;;;;;;;11.12;52.46;101601.53;5032517;28;20045;-71
2022/10/13 09:22:41;;;;;;;19.88;12.00;;;;;;;11.50;51.47;101599.47;5037413;28;20057;-71
2022/10/13 09:25:07;;;;;;;18.75;10.07;;;;;;;10.94;51.91;101600.34;5027999;28;20573;-71
2022/10/13 09:27:54;;;;;;;20.05;11.18;;;;;;;11.81;52.36;101597.59;5030360;28;20514;-71
2022/10/13 09:30:25;;;;;;;23.70;11.32;;;;;;;11.39;51.53;101595.44;5034415;28;20033;-71
2022/10/13 09:33:11;;;;;;;18.23;11.10;;;;;;;10.93;52.44;101594.25;5033519;28;20075;-71
2022/10/13 09:35:45;;;;;;;19.10;11.02;;;;;;;11.63;52.07;101595.56;5014796;28;20041;-72
2022/10/13 09:38:10;;;;;;;23.10;11.05;;;;;;;12.05;51.17;101571.47;5034943;28;20552;-70
2022/10/13 09:40:39;;;;;;;20.35;11.18;;;;;;;11.84;51.45;101580.91;5038679;28;20045;-70
2022/10/13 09:43:24;;;;;;;21.08;10.73;;;;;;;12.25;50.29;101571.59;5028308;28;20068;-70
2022/10/13 09:45:50;;;;;;;30.40;14.40;;;;;;;12.77;50.18;101575.88;5032740;28;20488;-70
2022/10/13 09:48:22;;;;;;;19.45;11.15;;;;;;;12.64;49.79;101568.41;5019041;28;20044;-70
2022/10/13 09:50:50;;;;;;;22.45;12.45;;;;;;;12.76;49.33;101567.16;5029985;28;20029;-69
2022/10/13 09:53:39;;;;;;;40.33;14.15;;;;;;;13.08;49.23;101568.50;5031068;28;20533;-71
2022/10/13 09:56:16;;;;;;;25.33;10.67;;;;;;;12.75;49.84;101575.91;5030695;28;20029;-70
2022/10/13 09:58:50;;;;;;;19.27;11.30;;;;;;;12.59;49.59;101570.38;5030948;28;20151;-69
2022/10/13 10:01:31;;;;;;;19.10;11.27;;;;;;;12.15;50.17;101575.47;5044975;28;20041;-70
2022/10/13 10:03:57;;;;;;;19.27;10.77;;;;;;;12.88;50.23;101571.06;5029974;28;20064;-70
2022/10/13 10:06:22;;;;;;;21.08;11.00;;;;;;;13.01;49.75;101569.69;5028159;28;20101;-70
2022/10/13 10:08:59;;;;;;;23.30;12.57;;;;;;;13.03;48.65;101565.22;5038046;28;20195;-70
2022/10/13 10:11:37;;;;;;;22.25;12.50;;;;;;;13.27;48.09;101568.66;5031913;28;20319;-70
2022/10/13 10:14:14;;;;;;;18.33;11.77;;;;;;;12.73;49.49;101569.03;5026431;28;20059;-70
2022/10/13 10:16:52;;;;;;;22.30;13.40;;;;;;;12.39;50.38;101570.25;5029196;28;20478;-70
2022/10/13 10:19:25;;;;;;;19.33;12.15;;;;;;;12.52;50.36;101574.13;5035478;28;20025;-70
2022/10/13 10:22:02;;;;;;;22.63;12.05;;;;;;;12.66;50.42;101571.84;5020884;28;20052;-69
2022/10/13 10:24:40;;;;;;;19.20;12.25;;;;;;;12.40;51.09;101569.34;5035148;28;20040;-70
2022/10/13 10:27:16;;;;;;;25.17;13.10;;;;;;;12.33;50.66;101573.09;5033032;28;20044;-69
2022/10/13 10:30:13;;;;;;;21.15;12.65;;;;;;;12.27;51.30;101572.41;5030457;28;20116;-69
2022/10/13 10:32:45;;;;;;;21.35;11.38;;;;;;;12.70;50.93;101578.72;5030916;28;20029;-69
2022/10/13 10:35:19;;;;;;;20.38;11.68;;;;;;;11.92;51.67;101572.81;5038144;28;20330;-70
2022/10/13 10:38:11;;;;;;;18.67;10.88;;;;;;;12.12;51.87;101577.34;5032902;28;20040;-70
2022/10/13 10:41:02;;;;;;;28.40;14.60;;;;;;;12.33;51.01;101571.31;5031678;28;20032;-70
2022/10/13 10:43:34;;;;;;;22.70;12.45;;;;;;;12.24;51.10;101575.13;5037471;28;20056;-70
2022/10/13 10:46:00;;;;;;;17.48;11.15;;;;;;;12.00;51.09;101581.22;5021875;28;20098;-70
2022/10/13 10:48:34;;;;;;;22.63;11.07;;;;;;;12.13;51.05;101576.44;5030668;28;20040;-70
2022/10/13 10:51:01;;;;;;;21.35;12.23;;;;;;;11.50;52.86;101579.38;5029433;28;20033;-70
2022/10/13 10:53:35;;;;;;;20.63;12.05;;;;;;;10.80;54.06;101579.81;5032452;28;20041;-70
2022/10/13 10:56:31;;;;;;;23.15;12.02;;;;;;;11.33;53.30;101574.72;5030774;28;20668;-69
2022/10/13 10:59:30;;;;;;;20.42;11.07;;;;;;;11.65;52.50;101570.19;5027282;28;20620;-69
2022/10/13 11:01:55;;;;;;;18.30;12.18;;;;;;;11.76;52.20;101568.06;5031994;28;22513;-69
2022/10/13 11:04:43;;;;;;;25.58;12.15;;;;;;;12.07;52.00;101569.66;5030754;28;20052;-70
2022/10/13 11:07:32;;;;;;;27.00;12.38;;;;;;;12.21;51.68;101562.16;5037089;28;20056;-69
2022/10/13 11:10:03;;;;;;;19.75;11.95;;;;;;;11.70;52.05;101556.94;5027511;28;20039;-69
2022/10/13 11:12:51;;;;;;;18.42;12.15;;;;;;;12.06;51.70;101552.22;5029933;28;20041;-69
2022/10/13 11:15:30;;;;;;;19.55;12.60;;;;;;;12.08;51.54;101550.38;5027706;28;20037;-69
2022/10/13 11:17:56;;;;;;;22.58;12.65;;;;;;;11.07;54.46;101551.97;5026674;28;20041;-69
2022/10/13 11:20:23;;;;;;;21.95;12.32;;;;;;;11.38;53.29;101551.00;5023563;28;20033;-69
2022/10/13 11:22:57;;;;;;;26.40;13.57;;;;;;;11.88;52.95;101553.72;5025352;28;20503;-69
2022/10/13 11:25:42;;;;;;;22.65;12.15;;;;;;;12.05;52.26;101547.88;5027756;28;20068;-68
2022/10/13 11:28:19;;;;;;;20.27;11.55;;;;;;;11.97;52.46;101545.53;5029418;28;20041;-69
2022/10/13 11:30:50;;;;;;;22.77;13.43;;;;;;;11.80;52.43;101548.75;5027602;28;20116;-69
2022/10/13 11:33:34;;;;;;;23.90;12.90;;;;;;;11.85;52.56;101546.81;5027806;28;20572;-69
2022/10/13 11:36:43;;;;;;;22.52;11.60;;;;;;;11.87;52.99;101537.16;5027584;28;20041;-69